DMNBB EDRK-EDRT
Flight info
| Callsign | DMNBB |
|---|---|
| Flight time | 0h 28m |
| Altitude | 2000 |
| Route | EDRK/EDRT |
| Aircraft | PIVI/L-VGD/A |
Departure
| Time | 2026-04-22 14:25 |
|---|---|
| Airport | Koblenz-Winningen Airfield (EDRK) |
Arrival
| Time | 2026-04-22 14:53 |
|---|---|
| Airport | Trier-Föhren Airfield (EDRT) |
| Time | Latitude | Longitude | Altitude | Speed | Heading |
|---|---|---|---|---|---|
| 2026-04-22 14:14 | 50.32311 | 7.52546 | 655 ft | 0 kts | 146° |
| 2026-04-22 14:22 | 50.32299 | 7.52480 | 652 ft | 4 kts | 246° |
| 2026-04-22 14:23 | 50.32279 | 7.52429 | 652 ft | 6 kts | 264° |
| 2026-04-22 14:23 | 50.32271 | 7.52371 | 653 ft | 5 kts | 288° |
| 2026-04-22 14:23 | 50.32276 | 7.52352 | 654 ft | 0 kts | 298° |
| 2026-04-22 14:24 | 50.32289 | 7.52334 | 654 ft | 5 kts | 317° |
| 2026-04-22 14:24 | 50.32329 | 7.52336 | 652 ft | 9 kts | 56° |
| 2026-04-22 14:24 | 50.32417 | 7.52548 | 657 ft | 58 kts | 57° |
| 2026-04-22 14:24 | 50.32711 | 7.53244 | 829 ft | 85 kts | 58° |
| 2026-04-22 14:25 | 50.33019 | 7.54046 | 1124 ft | 82 kts | 56° |
| 2026-04-22 14:25 | 50.33524 | 7.54240 | 1299 ft | 89 kts | 342° |
| 2026-04-22 14:25 | 50.33934 | 7.53511 | 1451 ft | 86 kts | 310° |
| 2026-04-22 14:25 | 50.34272 | 7.52724 | 1546 ft | 93 kts | 289° |
| 2026-04-22 14:26 | 50.34093 | 7.51724 | 1604 ft | 102 kts | 227° |
| 2026-04-22 14:26 | 50.33611 | 7.50876 | 1621 ft | 104 kts | 228° |
| 2026-04-22 14:26 | 50.33198 | 7.49954 | 1566 ft | 104 kts | 236° |
| 2026-04-22 14:26 | 50.32843 | 7.49003 | 1554 ft | 100 kts | 239° |
| 2026-04-22 14:27 | 50.32468 | 7.48099 | 1528 ft | 97 kts | 235° |
| 2026-04-22 14:27 | 50.32062 | 7.47267 | 1540 ft | 94 kts | 227° |
| 2026-04-22 14:27 | 50.31592 | 7.46567 | 1626 ft | 96 kts | 210° |
| 2026-04-22 14:27 | 50.30987 | 7.46118 | 1632 ft | 93 kts | 198° |
| 2026-04-22 14:28 | 50.30376 | 7.45747 | 1667 ft | 96 kts | 199° |
| 2026-04-22 14:28 | 50.29767 | 7.45354 | 1788 ft | 95 kts | 195° |
| 2026-04-22 14:28 | 50.29136 | 7.44978 | 1855 ft | 98 kts | 195° |
| 2026-04-22 14:28 | 50.28494 | 7.44622 | 1916 ft | 97 kts | 191° |
| 2026-04-22 14:29 | 50.27847 | 7.44342 | 1937 ft | 98 kts | 190° |
| 2026-04-22 14:29 | 50.27177 | 7.44038 | 1937 ft | 101 kts | 192° |
| 2026-04-22 14:29 | 50.26502 | 7.43737 | 1978 ft | 100 kts | 189° |
| 2026-04-22 14:29 | 50.25853 | 7.43490 | 2015 ft | 94 kts | 187° |
| 2026-04-22 14:30 | 50.25227 | 7.43274 | 1992 ft | 92 kts | 182° |
| 2026-04-22 14:30 | 50.24589 | 7.42988 | 1890 ft | 101 kts | 198° |
| 2026-04-22 14:30 | 50.23983 | 7.42537 | 1996 ft | 94 kts | 206° |
| 2026-04-22 14:30 | 50.23428 | 7.41909 | 1960 ft | 102 kts | 217° |
| 2026-04-22 14:31 | 50.22924 | 7.41110 | 1908 ft | 105 kts | 222° |
| 2026-04-22 14:31 | 50.22459 | 7.40268 | 1912 ft | 101 kts | 231° |
| 2026-04-22 14:31 | 50.22026 | 7.39436 | 1932 ft | 97 kts | 230° |
| 2026-04-22 14:31 | 50.21621 | 7.38588 | 1890 ft | 98 kts | 230° |
| 2026-04-22 14:32 | 50.21223 | 7.37711 | 1869 ft | 98 kts | 236° |
| 2026-04-22 14:32 | 50.20865 | 7.36875 | 2003 ft | 91 kts | 236° |
| 2026-04-22 14:32 | 50.20486 | 7.36048 | 2008 ft | 97 kts | 229° |
| 2026-04-22 14:32 | 50.20092 | 7.35163 | 1934 ft | 101 kts | 234° |
| 2026-04-22 14:33 | 50.19755 | 7.34187 | 1923 ft | 103 kts | 244° |
| 2026-04-22 14:33 | 50.19450 | 7.33177 | 1949 ft | 103 kts | 243° |
| 2026-04-22 14:33 | 50.19090 | 7.32194 | 1916 ft | 105 kts | 237° |
| 2026-04-22 14:33 | 50.18701 | 7.31228 | 1750 ft | 106 kts | 237° |
| 2026-04-22 14:34 | 50.18346 | 7.30272 | 1749 ft | 98 kts | 243° |
| 2026-04-22 14:34 | 50.18029 | 7.29365 | 1888 ft | 98 kts | 242° |
| 2026-04-22 14:34 | 50.17716 | 7.28370 | 1978 ft | 103 kts | 246° |
| 2026-04-22 14:34 | 50.17482 | 7.27317 | 1891 ft | 102 kts | 255° |
| 2026-04-22 14:35 | 50.17274 | 7.26243 | 1878 ft | 104 kts | 257° |
| 2026-04-22 14:35 | 50.16976 | 7.25226 | 1771 ft | 105 kts | 236° |
| 2026-04-22 14:35 | 50.16511 | 7.24451 | 1836 ft | 95 kts | 216° |
| 2026-04-22 14:35 | 50.16002 | 7.23781 | 1829 ft | 96 kts | 213° |
| 2026-04-22 14:36 | 50.15404 | 7.23321 | 1839 ft | 94 kts | 196° |
| 2026-04-22 14:36 | 50.14831 | 7.22971 | 1872 ft | 88 kts | 197° |
| 2026-04-22 14:36 | 50.14262 | 7.22584 | 1847 ft | 89 kts | 195° |
| 2026-04-22 14:36 | 50.13698 | 7.22277 | 2056 ft | 81 kts | 189° |
| 2026-04-22 14:37 | 50.13168 | 7.21935 | 2076 ft | 90 kts | 198° |
| 2026-04-22 14:37 | 50.12580 | 7.21446 | 2082 ft | 97 kts | 202° |
| 2026-04-22 14:37 | 50.11974 | 7.20947 | 2011 ft | 101 kts | 203° |
| 2026-04-22 14:37 | 50.11356 | 7.20424 | 1997 ft | 99 kts | 202° |
| 2026-04-22 14:38 | 50.10785 | 7.19883 | 2002 ft | 93 kts | 217° |
| 2026-04-22 14:38 | 50.10336 | 7.19229 | 1940 ft | 88 kts | 217° |
| 2026-04-22 14:38 | 50.09901 | 7.18585 | 1986 ft | 84 kts | 217° |
| 2026-04-22 14:38 | 50.09566 | 7.17779 | 2007 ft | 95 kts | 247° |
| 2026-04-22 14:39 | 50.09402 | 7.16763 | 1820 ft | 98 kts | 262° |
| 2026-04-22 14:39 | 50.09237 | 7.15808 | 1787 ft | 87 kts | 244° |
| 2026-04-22 14:39 | 50.08937 | 7.14885 | 1940 ft | 94 kts | 239° |
| 2026-04-22 14:40 | 50.08270 | 7.13761 | 1615 ft | 86 kts | 202° |
| 2026-04-22 14:40 | 50.07573 | 7.13227 | 1539 ft | 79 kts | 182° |
| 2026-04-22 14:40 | 50.06982 | 7.12949 | 1868 ft | 93 kts | 182° |
| 2026-04-22 14:40 | 50.06315 | 7.12774 | 2144 ft | 100 kts | 179° |
| 2026-04-22 14:41 | 50.05617 | 7.12831 | 2144 ft | 104 kts | 165° |
| 2026-04-22 14:41 | 50.04908 | 7.12598 | 2063 ft | 107 kts | 196° |
| 2026-04-22 14:41 | 50.04228 | 7.12092 | 1982 ft | 107 kts | 198° |
| 2026-04-22 14:41 | 50.03548 | 7.11722 | 1958 ft | 100 kts | 188° |
| 2026-04-22 14:42 | 50.02908 | 7.11327 | 2082 ft | 98 kts | 196° |
| 2026-04-22 14:42 | 50.02263 | 7.10963 | 2220 ft | 101 kts | 188° |
| 2026-04-22 14:42 | 50.01572 | 7.10696 | 2279 ft | 103 kts | 186° |
| 2026-04-22 14:42 | 50.00873 | 7.10386 | 2295 ft | 106 kts | 191° |
| 2026-04-22 14:43 | 50.00204 | 7.09915 | 2335 ft | 105 kts | 196° |
| 2026-04-22 14:43 | 49.99497 | 7.09893 | 2204 ft | 102 kts | 159° |
| 2026-04-22 14:43 | 49.98826 | 7.10132 | 2119 ft | 99 kts | 163° |
| 2026-04-22 14:43 | 49.98139 | 7.10265 | 2047 ft | 95 kts | 167° |
| 2026-04-22 14:44 | 49.97501 | 7.10355 | 2049 ft | 95 kts | 174° |
| 2026-04-22 14:44 | 49.96842 | 7.10170 | 2039 ft | 99 kts | 201° |
| 2026-04-22 14:44 | 49.96296 | 7.09496 | 2072 ft | 101 kts | 215° |
| 2026-04-22 14:44 | 49.95727 | 7.08829 | 2092 ft | 103 kts | 213° |
| 2026-04-22 14:45 | 49.95180 | 7.08170 | 2076 ft | 93 kts | 214° |
| 2026-04-22 14:45 | 49.94681 | 7.07580 | 2031 ft | 92 kts | 214° |
| 2026-04-22 14:45 | 49.94179 | 7.06891 | 2010 ft | 99 kts | 223° |
| 2026-04-22 14:45 | 49.93722 | 7.06091 | 1967 ft | 96 kts | 229° |
| 2026-04-22 14:46 | 49.93411 | 7.05183 | 1991 ft | 98 kts | 250° |
| 2026-04-22 14:46 | 49.93231 | 7.04176 | 2082 ft | 97 kts | 255° |
| 2026-04-22 14:46 | 49.93041 | 7.03175 | 2203 ft | 98 kts | 251° |
| 2026-04-22 14:46 | 49.92817 | 7.02150 | 2209 ft | 103 kts | 249° |
| 2026-04-22 14:47 | 49.92551 | 7.01092 | 2192 ft | 106 kts | 244° |
| 2026-04-22 14:47 | 49.92244 | 7.00067 | 2175 ft | 103 kts | 239° |
| 2026-04-22 14:47 | 49.91898 | 6.99105 | 2222 ft | 103 kts | 234° |
| 2026-04-22 14:47 | 49.91543 | 6.98127 | 2235 ft | 106 kts | 247° |
| 2026-04-22 14:48 | 49.91327 | 6.97016 | 2242 ft | 108 kts | 257° |
| 2026-04-22 14:48 | 49.91141 | 6.95887 | 2317 ft | 111 kts | 258° |
| 2026-04-22 14:48 | 49.91084 | 6.94695 | 2381 ft | 111 kts | 277° |
| 2026-04-22 14:48 | 49.91177 | 6.93513 | 2481 ft | 110 kts | 282° |
| 2026-04-22 14:49 | 49.91284 | 6.92351 | 2523 ft | 108 kts | 279° |
| 2026-04-22 14:49 | 49.91364 | 6.91182 | 2487 ft | 111 kts | 277° |
| 2026-04-22 14:49 | 49.91395 | 6.89968 | 2429 ft | 114 kts | 272° |
| 2026-04-22 14:49 | 49.91400 | 6.88732 | 2296 ft | 115 kts | 269° |
| 2026-04-22 14:50 | 49.91231 | 6.87601 | 2167 ft | 101 kts | 248° |
| 2026-04-22 14:50 | 49.90925 | 6.86640 | 1906 ft | 99 kts | 239° |
| 2026-04-22 14:50 | 49.90630 | 6.85697 | 1678 ft | 97 kts | 245° |
| 2026-04-22 14:50 | 49.90378 | 6.84743 | 1457 ft | 93 kts | 241° |
| 2026-04-22 14:51 | 49.89995 | 6.83980 | 1263 ft | 90 kts | 221° |
| 2026-04-22 14:51 | 49.89573 | 6.83287 | 1176 ft | 85 kts | 223° |
| 2026-04-22 14:51 | 49.89170 | 6.82644 | 1084 ft | 82 kts | 221° |
| 2026-04-22 14:51 | 49.88751 | 6.82085 | 1086 ft | 77 kts | 218° |
| 2026-04-22 14:52 | 49.88372 | 6.81531 | 1046 ft | 74 kts | 220° |
| 2026-04-22 14:52 | 49.87989 | 6.80994 | 954 ft | 74 kts | 217° |
| 2026-04-22 14:52 | 49.87563 | 6.80441 | 961 ft | 76 kts | 222° |
| 2026-04-22 14:52 | 49.87343 | 6.80080 | 891 ft | 66 kts | 220° |
| 2026-04-22 14:53 | 49.86932 | 6.79477 | 746 ft | 61 kts | 211° |
| 2026-04-22 14:53 | 49.86712 | 6.79185 | 689 ft | 62 kts | 212° |
| 2026-04-22 14:53 | 49.86428 | 6.78863 | 672 ft | 35 kts | 162° |
| 2026-04-22 14:53 | 49.86527 | 6.78923 | 668 ft | 0 kts | 212° |